Time;durP1;ratioP1;P1;durP2;ratioP2;P2;SDS_P1;SDS_P2;PMS_P1;PMS_P2;Temp;Humidity;BMP_temperature;BMP_pressure;BME280_temperature;BME280_humidity;BME280_pressure;Samples;Min_cycle;Max_cycle;Signal;HPM_P1;HPM_P2
2021/01/22 00:41:14;;;;;;;5.00;1.88;;;10.40;99.90;;;;;;4969684;29;20493;-96
2021/01/22 00:44:36;;;;;;;;;;;;;;;;;;;;;
2021/01/22 00:47:40;;;;;;;;;;;;;;;;;;;;;
2021/01/22 00:50:54;;;;;;;;;;;;;;;;;;;;;
2021/01/22 01:00:06;;;;;;;5.93;1.85;;;10.70;99.90;;;;;;4989709;23;20166;-94
2021/01/22 01:02:31;;;;;;;2.75;1.13;;;10.50;99.90;;;;;;4973830;29;20071;-95
2021/01/22 01:04:57;;;;;;;7.15;1.50;;;10.80;99.90;;;;;;4949542;29;20032;-95
2021/01/22 01:07:26;;;;;;;6.07;1.42;;;10.60;99.90;;;;;;4966265;29;20055;-96
2021/01/22 01:09:53;;;;;;;6.70;2.15;;;10.70;99.90;;;;;;4944615;29;20031;-95
2021/01/22 01:12:19;;;;;;;4.10;1.40;;;10.50;99.90;;;;;;4930712;28;20581;-96
2021/01/22 01:14:44;;;;;;;1.73;1.02;;;10.70;99.90;;;;;;4947405;29;20031;-94
2021/01/22 01:17:10;;;;;;;4.95;1.30;;;10.60;99.90;;;;;;4947314;29;20070;-94
2021/01/22 01:19:36;;;;;;;4.72;1.10;;;10.60;99.90;;;;;;4923283;29;20126;-94
2021/01/22 01:22:02;;;;;;;3.35;0.98;;;10.50;99.90;;;;;;4927896;29;20059;-95
2021/01/22 01:39:02;;;;;;;3.33;0.98;;;10.60;99.90;;;;;;5194184;23;20067;-96
2021/01/22 01:42:11;;;;;;;;;;;;;;;;;;;;;
2021/01/22 01:51:45;;;;;;;;;;;;;;;;;;;;;
2021/01/22 01:54:05;;;;;;;1.98;0.77;;;10.40;99.90;;;;;;5137251;23;20048;-96
2021/01/22 01:57:18;;;;;;;1.63;0.77;;;10.20;99.90;;;;;;4957317;29;20054;-96
2021/01/22 02:03:13;;;;;;;0.98;0.70;;;10.40;99.90;;;;;;4899339;29;20043;-96
2021/01/22 02:05:41;;;;;;;4.25;1.42;;;10.30;99.90;;;;;;4935320;29;20031;-94
2021/01/22 02:08:07;;;;;;;4.45;1.45;;;10.20;99.90;;;;;;4962750;29;20042;-95
2021/01/22 02:10:33;;;;;;;2.80;0.65;;;10.00;99.90;;;;;;4949364;29;20376;-94
2021/01/22 02:13:01;;;;;;;6.55;0.50;;;9.10;99.90;;;;;;4927735;29;20429;-93
2021/01/22 02:15:28;;;;;;;0.70;0.50;;;8.50;99.90;;;;;;4909707;29;20360;-95
2021/01/22 02:17:55;;;;;;;0.75;0.63;;;8.20;99.90;;;;;;4930057;29;20027;-95
2021/01/22 02:20:28;;;;;;;0.95;0.60;;;7.90;99.90;;;;;;4944583;29;20045;-96
2021/01/22 02:23:08;;;;;;;0.68;0.52;;;7.70;99.90;;;;;;4940024;29;20161;-96
2021/01/22 02:26:14;;;;;;;2.13;0.70;;;7.70;99.90;;;;;;4920981;29;20020;-96
2021/01/22 02:29:02;;;;;;;;;;;;;;;;;;;;;
2021/01/22 02:31:52;;;;;;;;;;;;;;;;;;;;;
2021/01/22 02:49:42;;;;;;;2.63;1.70;;;6.80;99.90;;;;;;4951742;29;20043;-96
2021/01/22 02:52:08;;;;;;;2.33;2.05;;;6.50;99.90;;;;;;4946082;29;20067;-96
2021/01/22 02:54:34;;;;;;;3.83;2.55;;;6.30;99.90;;;;;;4962237;29;20472;-96
2021/01/22 02:57:19;;;;;;;4.90;3.13;;;6.20;99.90;;;;;;4946387;29;20096;-96
2021/01/22 02:59:50;;;;;;;4.00;2.90;;;6.00;99.90;;;;;;4955879;28;20031;-95
2021/01/22 03:02:40;;;;;;;4.82;3.67;;;5.90;99.90;;;;;;4972333;28;20036;-95
2021/01/22 03:05:10;;;;;;;5.70;4.15;;;5.80;99.90;;;;;;4978289;28;20074;-94
2021/01/22 03:07:57;;;;;;;6.97;3.95;;;5.70;99.90;;;;;;4977946;28;20030;-94
2021/01/22 03:10:31;;;;;;;4.70;3.80;;;5.60;99.90;;;;;;4959126;29;20099;-94
2021/01/22 03:12:57;;;;;;;4.55;3.42;;;5.50;99.90;;;;;;4942057;29;20046;-93
2021/01/22 03:15:24;;;;;;;4.38;3.67;;;5.50;99.90;;;;;;4946764;29;20038;-94
2021/01/22 03:17:50;;;;;;;6.60;3.83;;;5.30;99.90;;;;;;4934525;29;20055;-93
2021/01/22 03:20:20;;;;;;;13.65;7.53;;;5.30;99.90;;;;;;4955910;29;20090;-95
2021/01/22 03:22:46;;;;;;;7.15;4.03;;;5.20;99.90;;;;;;4978351;28;20019;-95
2021/01/22 03:25:13;;;;;;;5.78;4.00;;;5.10;99.90;;;;;;4951950;29;20202;-94
2021/01/22 03:27:39;;;;;;;8.50;5.15;;;5.10;99.90;;;;;;4946946;29;20028;-93
2021/01/22 03:30:06;;;;;;;8.45;5.72;;;5.10;99.90;;;;;;4946731;29;20035;-93
2021/01/22 03:32:34;;;;;;;5.40;4.30;;;5.00;99.90;;;;;;4931641;29;20055;-93
2021/01/22 03:35:01;;;;;;;7.28;4.63;;;5.30;99.90;;;;;;4948297;29;20028;-94
2021/01/22 03:37:27;;;;;;;7.75;5.82;;;5.00;99.90;;;;;;4947352;29;20024;-94
2021/01/22 03:39:58;;;;;;;8.68;6.60;;;5.00;99.90;;;;;;4951858;29;20090;-91
2021/01/22 03:42:24;;;;;;;8.80;6.05;;;4.60;99.90;;;;;;4951275;29;20113;-92
2021/01/22 03:44:49;;;;;;;9.10;6.90;;;4.80;99.90;;;;;;4970633;29;20050;-95
2021/01/22 03:47:15;;;;;;;8.35;6.28;;;4.80;99.90;;;;;;4968391;29;20075;-93
2021/01/22 03:49:41;;;;;;;8.88;6.43;;;4.80;99.90;;;;;;4980237;28;20034;-93
2021/01/22 03:52:07;;;;;;;9.77;6.78;;;4.80;99.90;;;;;;4964381;29;20090;-94
2021/01/22 03:54:32;;;;;;;8.60;7.05;;;4.70;99.90;;;;;;4958205;29;20098;-95
2021/01/22 03:56:58;;;;;;;8.45;6.97;;;4.60;99.90;;;;;;4947500;29;20031;-96
2021/01/22 03:59:24;;;;;;;9.50;6.55;;;4.70;99.90;;;;;;4976084;29;20077;-96
2021/01/22 04:01:49;;;;;;;8.38;6.32;;;4.60;99.90;;;;;;4965414;29;20023;-96
2021/01/22 04:04:15;;;;;;;8.85;6.63;;;4.60;99.90;;;;;;4965179;29;20154;-92
2021/01/22 04:06:41;;;;;;;10.60;7.28;;;4.60;99.90;;;;;;4944305;29;20110;-92
2021/01/22 04:09:07;;;;;;;10.38;8.10;;;4.70;99.90;;;;;;4960226;29;20463;-92
2021/01/22 04:11:32;;;;;;;11.07;7.72;;;4.70;99.90;;;;;;4960648;29;20042;-92
2021/01/22 04:13:58;;;;;;;10.65;8.15;;;4.60;99.90;;;;;;4931656;29;20031;-92
2021/01/22 04:16:25;;;;;;;10.32;7.78;;;4.60;99.90;;;;;;4912518;29;20103;-94
2021/01/22 04:18:51;;;;;;;9.38;6.60;;;4.60;99.90;;;;;;4923052;29;20084;-91
2021/01/22 04:21:16;;;;;;;10.75;6.50;;;4.70;99.90;;;;;;4917465;29;20446;-93
2021/01/22 04:23:42;;;;;;;8.25;6.00;;;4.80;99.90;;;;;;4890098;29;20037;-92
2021/01/22 04:26:08;;;;;;;7.68;5.90;;;4.70;99.90;;;;;;4891168;29;20028;-94
2021/01/22 04:28:33;;;;;;;10.32;5.35;;;4.70;99.90;;;;;;4900216;29;20042;-92
2021/01/22 04:30:59;;;;;;;7.70;4.95;;;4.70;99.90;;;;;;4930037;29;20043;-91
2021/01/22 04:33:25;;;;;;;7.35;5.10;;;4.70;99.90;;;;;;4937836;29;20028;-92
2021/01/22 04:35:53;;;;;;;9.02;6.38;;;4.60;99.90;;;;;;4936985;29;20024;-93
2021/01/22 04:38:21;;;;;;;9.65;5.85;;;4.60;99.90;;;;;;4907634;29;20045;-95
2021/01/22 04:40:49;;;;;;;6.93;5.50;;;4.60;99.90;;;;;;4935295;29;20036;-94
2021/01/22 04:43:15;;;;;;;9.23;5.75;;;4.60;99.90;;;;;;4930024;29;20115;-93
2021/01/22 04:45:42;;;;;;;9.25;5.13;;;4.60;99.90;;;;;;4943732;29;20122;-94
2021/01/22 04:48:09;;;;;;;7.70;5.45;;;4.60;99.90;;;;;;4962914;28;20027;-93
2021/01/22 04:50:37;;;;;;;8.23;4.40;;;4.60;99.90;;;;;;4951337;29;20046;-94
2021/01/22 04:53:10;;;;;;;8.05;4.70;;;4.60;99.90;;;;;;4964283;29;20126;-95
2021/01/22 04:55:40;;;;;;;6.63;4.50;;;4.60;99.90;;;;;;4958007;29;20027;-95
2021/01/22 04:58:12;;;;;;;5.88;4.25;;;4.70;99.90;;;;;;4966477;29;20034;-95
2021/01/22 05:00:41;;;;;;;7.97;4.75;;;4.60;99.90;;;;;;4965624;29;20042;-95
2021/01/22 05:03:07;;;;;;;8.20;5.10;;;4.60;99.90;;;;;;4944993;29;20090;-94
2021/01/22 05:05:34;;;;;;;7.03;4.50;;;4.60;99.90;;;;;;4962872;29;20099;-94
2021/01/22 05:08:02;;;;;;;7.07;5.13;;;4.50;99.90;;;;;;4930732;29;20125;-93
2021/01/22 05:10:28;;;;;;;7.35;4.80;;;4.50;99.90;;;;;;4945840;29;20020;-93
2021/01/22 05:12:55;;;;;;;7.80;5.25;;;4.50;99.90;;;;;;4952609;29;20051;-91
2021/01/22 05:15:26;;;;;;;10.85;6.45;;;4.50;99.90;;;;;;4942523;29;20015;-91
2021/01/22 05:18:03;;;;;;;8.13;5.43;;;4.50;99.90;;;;;;4978639;28;20023;-92
2021/01/22 05:20:42;;;;;;;7.22;5.22;;;4.50;99.90;;;;;;4962537;28;20046;-93
2021/01/22 05:23:10;;;;;;;8.27;5.15;;;4.50;99.90;;;;;;4964088;29;20074;-93
2021/01/22 05:26:02;;;;;;;12.90;6.22;;;4.40;99.90;;;;;;4960239;29;20062;-93
2021/01/22 05:28:41;;;;;;;10.27;6.60;;;4.40;99.90;;;;;;4978531;28;20039;-93
2021/01/22 05:31:19;;;;;;;7.45;5.57;;;4.40;99.90;;;;;;4979933;28;20019;-94
2021/01/22 05:34:00;;;;;;;9.73;6.32;;;4.40;99.90;;;;;;4963277;29;20031;-96
2021/01/22 05:36:30;;;;;;;9.55;5.47;;;4.40;99.90;;;;;;4970813;29;20098;-96
2021/01/22 05:38:57;;;;;;;10.13;5.55;;;4.40;99.90;;;;;;4970145;29;20059;-93
2021/01/22 05:41:24;;;;;;;10.75;6.72;;;4.30;99.90;;;;;;4945517;29;20027;-93
2021/01/22 05:43:52;;;;;;;8.90;5.50;;;4.90;99.90;;;;;;4948112;29;20529;-94
2021/01/22 05:46:25;;;;;;;8.93;6.53;;;4.60;99.90;;;;;;4947358;29;20044;-95
2021/01/22 05:49:16;;;;;;;8.45;6.07;;;4.40;99.90;;;;;;4954228;28;20046;-94
2021/01/22 05:51:46;;;;;;;8.63;5.47;;;4.40;99.90;;;;;;4952542;29;20091;-94
2021/01/22 05:54:33;;;;;;;10.73;6.03;;;4.40;99.90;;;;;;4942177;29;20118;-93
2021/01/22 05:57:00;;;;;;;9.35;6.05;;;4.40;99.90;;;;;;4944473;29;20635;-95
2021/01/22 05:59:30;;;;;;;12.27;7.88;;;4.40;99.90;;;;;;4945777;29;20055;-94
2021/01/22 06:01:56;;;;;;;9.95;6.82;;;4.40;99.90;;;;;;4946762;29;20058;-94
2021/01/22 06:04:22;;;;;;;9.63;6.35;;;4.40;99.90;;;;;;4948103;29;20106;-94
2021/01/22 06:06:54;;;;;;;11.07;6.78;;;4.40;99.90;;;;;;4946215;29;20028;-93
2021/01/22 06:09:37;;;;;;;10.25;6.30;;;4.40;99.90;;;;;;4951110;29;20350;-92
2021/01/22 06:12:05;;;;;;;10.93;6.88;;;4.40;99.90;;;;;;4947439;29;20040;-93
2021/01/22 06:14:35;;;;;;;9.35;6.38;;;4.40;99.90;;;;;;4944979;29;20020;-93
2021/01/22 06:17:05;;;;;;;9.25;6.22;;;4.50;99.90;;;;;;4951208;29;20028;-94
2021/01/22 06:19:40;;;;;;;11.10;6.78;;;4.40;99.90;;;;;;4944820;29;20056;-94
2021/01/22 06:22:21;;;;;;;9.35;6.28;;;4.40;99.90;;;;;;4949769;29;20032;-94
2021/01/22 06:24:49;;;;;;;7.90;5.30;;;4.40;99.90;;;;;;4941921;29;20028;-94
2021/01/22 06:27:22;;;;;;;11.95;7.18;;;4.30;99.90;;;;;;4948189;29;20083;-94
2021/01/22 06:29:50;;;;;;;14.45;7.13;;;4.50;99.90;;;;;;4947406;29;20034;-95
2021/01/22 06:32:18;;;;;;;9.73;6.07;;;4.40;99.90;;;;;;4945101;29;20027;-96
2021/01/22 06:34:45;;;;;;;9.07;5.90;;;4.40;99.90;;;;;;4929960;29;20573;-93
2021/01/22 06:37:11;;;;;;;9.55;6.65;;;4.50;99.90;;;;;;4942549;29;20039;-93
2021/01/22 06:39:42;;;;;;;8.80;5.68;;;4.50;99.90;;;;;;4921111;29;20027;-95
2021/01/22 06:42:08;;;;;;;11.38;6.10;;;4.40;99.90;;;;;;4940072;29;20032;-94
2021/01/22 06:44:35;;;;;;;8.27;5.72;;;4.40;99.90;;;;;;4944745;29;20115;-94
2021/01/22 06:47:14;;;;;;;9.27;5.07;;;4.40;99.90;;;;;;4953504;29;20028;-91
2021/01/22 06:50:33;;;;;;;9.95;5.32;;;4.40;99.90;;;;;;4942995;29;20020;-94
2021/01/22 06:53:34;;;;;;;15.05;7.97;;;4.40;99.90;;;;;;5156148;23;20063;-95
2021/01/22 06:56:06;;;;;;;12.40;8.13;;;4.40;99.90;;;;;;4961501;29;20038;-95
2021/01/22 06:58:38;;;;;;;10.80;7.22;;;4.40;99.90;;;;;;4961540;28;20050;-96
2021/01/22 07:01:32;;;;;;;11.88;7.28;;;4.50;99.90;;;;;;5112145;23;20099;-93
2021/01/22 07:04:04;;;;;;;15.18;7.75;;;4.60;99.90;;;;;;4919631;29;20048;-96
2021/01/22 07:06:39;;;;;;;10.45;6.90;;;4.50;99.90;;;;;;4918526;29;20044;-95
2021/01/22 07:09:05;;;;;;;11.68;6.05;;;4.50;99.90;;;;;;4912020;29;20085;-96
2021/01/22 07:11:57;;;;;;;12.68;7.65;;;4.50;99.90;;;;;;4903475;29;20076;-96
2021/01/22 07:14:35;;;;;;;9.55;5.88;;;4.50;99.90;;;;;;4900576;29;20036;-96
2021/01/22 07:27:38;;;;;;;10.77;5.22;;;4.70;99.90;;;;;;5239743;23;20047;-96
2021/01/22 07:30:09;;;;;;;5.72;3.38;;;4.70;99.90;;;;;;4982159;28;20023;-94
2021/01/22 07:32:37;;;;;;;7.43;4.50;;;4.70;99.90;;;;;;4961678;28;20024;-96
2021/01/22 07:35:11;;;;;;;6.00;3.28;;;4.70;99.90;;;;;;4965041;28;20019;-96
2021/01/22 07:37:44;;;;;;;10.43;3.90;;;4.60;99.90;;;;;;4943933;29;20047;-96
2021/01/22 07:40:13;;;;;;;12.43;8.32;;;4.70;99.90;;;;;;4952723;29;20452;-96
2021/01/22 07:43:07;;;;;;;;;;;;;;;;;;;;;
2021/01/22 08:00:19;;;;;;;4.43;3.53;;;5.00;99.90;;;;;;4973380;29;20085;-94
2021/01/22 08:03:40;;;;;;;;;;;;;;;;;;;;;
2021/01/22 08:06:07;;;;;;;5.50;2.88;;;5.00;99.90;;;;;;5403300;23;20143;-95
2021/01/22 08:16:42;;;;;;;;;;;;;;;;;;;;;
2021/01/22 08:24:20;;;;;;;7.57;2.45;;;5.10;99.90;;;;;;4844380;26;20043;-96
2021/01/22 08:27:07;;;;;;;5.45;2.50;;;5.00;99.90;;;;;;4962055;29;20030;-95
2021/01/22 08:29:40;;;;;;;6.40;2.58;;;5.10;99.90;;;;;;5096811;23;20570;-81
2021/01/22 08:32:08;;;;;;;4.95;1.83;;;5.20;99.90;;;;;;4957382;29;20155;-83
2021/01/22 08:34:35;;;;;;;6.90;1.80;;;5.30;99.90;;;;;;4957267;29;20569;-81
2021/01/22 08:37:05;;;;;;;6.30;2.47;;;5.40;99.90;;;;;;4961545;29;20015;-95
2021/01/22 08:42:29;;;;;;;6.07;2.42;;;5.40;99.90;;;;;;5091730;23;20048;-92
2021/01/22 08:47:44;;;;;;;7.45;2.25;;;5.40;99.90;;;;;;5469413;23;20051;-91
2021/01/22 08:55:34;;;;;;;6.68;2.40;;;5.50;99.90;;;;;;4960184;23;20044;-94
2021/01/22 08:58:05;;;;;;;7.60;3.15;;;5.60;99.90;;;;;;4960447;28;20012;-92
2021/01/22 09:03:34;;;;;;;;;;;;;;;;;;;;;
2021/01/22 09:06:15;;;;;;;8.85;3.42;;;5.70;99.90;;;;;;5116755;23;20071;-93
2021/01/22 09:16:06;;;;;;;5.03;2.65;;;5.90;99.90;;;;;;4973259;28;20046;-96
2021/01/22 09:18:44;;;;;;;7.55;2.53;;;5.90;99.90;;;;;;4960474;28;20035;-95
2021/01/22 10:51:27;;;;;;;4.85;2.92;;;7.90;99.90;;;;;;5419448;23;21231;-91
2021/01/22 10:54:00;;;;;;;6.50;3.33;;;8.00;99.90;;;;;;4958187;29;20109;-95
2021/01/22 11:28:36;;;;;;;5.63;3.20;;;8.90;99.90;;;;;;3885191;23;20315;-95
2021/01/22 11:31:35;;;;;;;6.47;2.97;;;8.90;99.90;;;;;;5276803;23;20055;-94
2021/01/22 12:22:12;;;;;;;9.20;2.65;;;9.20;99.90;;;;;;5762686;23;20124;-92
2021/01/22 12:24:51;;;;;;;;;;;;;;;;;;;;;
2021/01/22 15:20:19;;;;;;;3.25;2.67;;;7.40;99.90;;;;;;4906186;29;20080;-90
2021/01/22 15:23:42;;;;;;;6.10;3.00;;;7.30;99.90;;;;;;4859283;29;20380;-90
2021/01/22 15:26:37;;;;;;;;;;;;;;;;;;;;;
2021/01/22 15:46:48;;;;;;;7.10;3.65;;;6.40;99.90;;;;;;5318479;23;20348;-90
2021/01/22 15:58:30;;;;;;;9.75;3.47;;;6.00;99.90;;;;;;5670338;23;20035;-92
2021/01/22 16:01:15;;;;;;;5.45;3.63;;;5.80;99.90;;;;;;4964682;28;20058;-94
2021/01/22 16:03:52;;;;;;;9.55;4.00;;;5.50;99.90;;;;;;4974826;28;20047;-93
2021/01/22 16:06:46;;;;;;;4.47;3.10;;;5.40;99.90;;;;;;4948201;29;20039;-92
2021/01/22 16:09:17;;;;;;;10.57;5.05;;;5.40;99.90;;;;;;4953455;29;20024;-93
2021/01/22 16:11:46;;;;;;;13.15;5.50;;;5.10;99.90;;;;;;4947047;29;20122;-93
2021/01/22 16:14:17;;;;;;;15.90;8.20;;;4.90;99.90;;;;;;4932268;29;20032;-92
2021/01/22 16:16:42;;;;;;;12.07;6.50;;;5.20;99.90;;;;;;4947584;29;20047;-95
2021/01/22 16:19:10;;;;;;;11.73;7.50;;;4.70;99.90;;;;;;4929896;29;20119;-92
2021/01/22 16:21:37;;;;;;;13.70;6.55;;;4.80;99.90;;;;;;4935514;29;20040;-94
2021/01/22 16:30:01;;;;;;;10.18;4.13;;;4.40;99.90;;;;;;4961059;29;20071;-94
2021/01/22 16:32:53;;;;;;;9.93;5.50;;;4.40;99.90;;;;;;5374890;23;20712;-91
2021/01/22 16:35:25;;;;;;;9.85;4.90;;;4.30;99.90;;;;;;4926965;29;20115;-96
2021/01/22 16:37:53;;;;;;;8.93;5.25;;;4.30;99.90;;;;;;4921100;29;20038;-94
2021/01/22 16:40:55;;;;;;;11.02;5.22;;;4.10;99.90;;;;;;4901265;29;20016;-89
2021/01/22 16:43:45;;;;;;;14.23;6.03;;;4.00;99.90;;;;;;4933365;29;20028;-90
2021/01/22 16:46:11;;;;;;;12.52;6.60;;;3.90;99.90;;;;;;4941985;29;20074;-91
2021/01/22 16:48:39;;;;;;;14.68;7.32;;;3.90;99.90;;;;;;4949531;29;20016;-91
2021/01/22 16:51:11;;;;;;;16.55;6.90;;;3.80;99.90;;;;;;4934014;29;20042;-90
2021/01/22 16:53:41;;;;;;;11.40;6.78;;;3.80;99.90;;;;;;4924451;29;20088;-91
2021/01/22 16:56:09;;;;;;;15.40;6.57;;;3.90;99.90;;;;;;4949598;29;20038;-91
2021/01/22 16:59:11;;;;;;;11.52;5.72;;;3.80;99.90;;;;;;4916014;29;20025;-90
2021/01/22 17:05:18;;;;;;;9.82;5.18;;;3.80;99.90;;;;;;4826340;29;20072;-90
2021/01/22 17:07:48;;;;;;;10.02;5.57;;;3.90;99.90;;;;;;4803411;29;20019;-89
2021/01/22 17:27:47;;;;;;;13.75;7.05;;;4.00;99.90;;;;;;4774968;30;20104;-90
2021/01/22 17:31:26;;;;;;;;;;;;;;;;;;;;;
2021/01/22 17:34:06;;;;;;;16.38;7.85;;;4.00;99.90;;;;;;4750569;30;20043;-91
2021/01/22 17:37:21;;;;;;;21.98;9.23;;;3.90;99.90;;;;;;4775385;30;20154;-90
2021/01/22 17:40:06;;;;;;;16.52;9.02;;;4.00;99.90;;;;;;4781067;29;20406;-89
2021/01/22 17:42:37;;;;;;;24.98;9.30;;;4.00;99.90;;;;;;4796770;29;20059;-91
2021/01/22 17:45:11;;;;;;;16.52;9.07;;;3.90;99.90;;;;;;4778912;29;20465;-91
2021/01/22 17:47:37;;;;;;;19.70;9.23;;;4.00;99.90;;;;;;4803204;29;20115;-92
2021/01/22 17:50:08;;;;;;;20.55;9.32;;;3.90;99.90;;;;;;4860469;23;20097;-91
2021/01/22 17:52:54;;;;;;;16.58;8.18;;;3.80;99.90;;;;;;4921846;29;20138;-90
2021/01/22 17:55:55;;;;;;;13.25;6.85;;;3.90;99.90;;;;;;4919749;29;20028;-92
2021/01/22 18:06:00;;;;;;;13.52;5.65;;;3.50;99.90;;;;;;4767085;30;20071;-90
2021/01/22 18:22:42;;;;;;;20.67;8.85;;;3.80;99.90;;;;;;4797472;30;20047;-91
2021/01/22 18:39:05;;;;;;;;;;;;;;;;;;;;;
2021/01/22 18:42:17;;;;;;;;;;;;;;;;;;;;;
2021/01/22 18:55:47;;;;;;;19.33;8.73;;;3.20;99.90;;;;;;4869110;29;20036;-93
2021/01/22 19:01:46;;;;;;;17.73;9.70;;;3.10;99.90;;;;;;4866652;29;20039;-90
2021/01/22 19:15:55;;;;;;;25.60;13.35;;;3.20;99.90;;;;;;4783949;30;20115;-90
2021/01/22 20:19:17;;;;;;;;;;;;;;;;;;;;;
2021/01/22 20:48:39;;;;;;;17.02;9.48;;;2.70;99.90;;;;;;5039219;23;20063;-92
2021/01/22 20:51:12;;;;;;;18.73;10.07;;;2.60;99.90;;;;;;5264736;23;20108;-90
2021/01/22 21:15:19;;;;;;;17.92;10.23;;;2.60;99.90;;;;;;5127988;23;20106;-92
2021/01/22 21:23:55;;;;;;;15.90;8.98;;;2.60;99.90;;;;;;4927421;29;20064;-92
2021/01/22 21:27:36;;;;;;;15.60;8.48;;;2.40;99.90;;;;;;4937324;29;20082;-92
2021/01/22 21:30:40;;;;;;;15.40;8.43;;;2.60;99.90;;;;;;4915482;29;20466;-92
2021/01/22 21:36:23;;;;;;;15.63;9.45;;;2.70;99.90;;;;;;5225422;23;20059;-91
2021/01/22 21:39:27;;;;;;;17.85;10.50;;;2.60;99.90;;;;;;4937942;29;20047;-93
2021/01/22 21:42:08;;;;;;;14.30;9.07;;;2.60;99.90;;;;;;4938454;29;20051;-93
2021/01/22 22:24:14;;;;;;;17.20;10.05;;;2.20;99.90;;;;;;5177549;23;20063;-91
2021/01/22 22:30:19;;;;;;;15.27;7.85;;;2.40;99.90;;;;;;4967231;29;20033;-94
2021/01/22 22:40:24;;;;;;;17.33;9.13;;;2.20;99.90;;;;;;4948483;29;20034;-92
2021/01/22 22:42:51;;;;;;;16.23;9.48;;;2.10;99.90;;;;;;5391645;23;20052;-92
2021/01/22 22:47:55;;;;;;;18.40;9.30;;;2.20;99.90;;;;;;5405669;23;20070;-91
2021/01/22 22:50:28;;;;;;;15.50;8.90;;;2.20;99.90;;;;;;5449102;23;20052;-89
2021/01/22 22:53:09;;;;;;;16.33;9.48;;;2.20;99.90;;;;;;4913088;29;20059;-88
2021/01/22 22:56:12;;;;;;;14.70;8.00;;;2.30;99.90;;;;;;4926870;29;20040;-92
2021/01/22 22:58:52;;;;;;;12.98;8.20;;;2.20;99.90;;;;;;4929905;29;20237;-93
2021/01/22 23:03:53;;;;;;;12.88;8.45;;;2.20;99.90;;;;;;4965406;23;20104;-89
2021/01/22 23:16:43;;;;;;;15.60;9.88;;;2.00;99.90;;;;;;4965110;29;20023;-94
2021/01/22 23:19:54;;;;;;;19.42;10.85;;;2.20;99.90;;;;;;4919145;29;20103;-96
2021/01/22 23:26:31;;;;;;;17.10;9.40;;;2.20;99.90;;;;;;4946636;29;20031;-96
2021/01/22 23:32:49;;;;;;;16.63;9.18;;;2.10;99.90;;;;;;4947265;29;20115;-94
2021/01/22 23:35:25;;;;;;;15.60;8.50;;;2.10;99.90;;;;;;5609610;23;20043;-96
2021/01/22 23:41:34;;;;;;;15.75;8.50;;;2.10;99.90;;;;;;4896267;29;20040;-94
2021/01/22 23:44:26;;;;;;;14.32;8.10;;;2.20;99.90;;;;;;4873025;29;20034;-96
2021/01/22 23:47:35;;;;;;;17.88;9.88;;;2.40;99.90;;;;;;4860039;29;20045;-96
2021/01/22 23:55:19;;;;;;;15.60;8.93;;;2.00;99.90;;;;;;5355891;23;20066;-96
